sensor_id;sensor_type;location;lat;lon;timestamp;temperature;humidity
23267;DHT22;11802;53.160;8.214;2024-01-10T00:01:51;-4.50;99.90
23267;DHT22;11802;53.160;8.214;2024-01-10T00:04:16;-4.50;99.90
23267;DHT22;11802;53.160;8.214;2024-01-10T00:06:43;-4.50;99.90
23267;DHT22;11802;53.160;8.214;2024-01-10T00:09:08;-4.50;99.90
23267;DHT22;11802;53.160;8.214;2024-01-10T00:11:34;-4.60;99.90
23267;DHT22;11802;53.160;8.214;2024-01-10T00:14:00;-4.50;99.90
23267;DHT22;11802;53.160;8.214;2024-01-10T00:16:26;-4.60;99.90
23267;DHT22;11802;53.160;8.214;2024-01-10T00:18:52;-4.60;99.90
23267;DHT22;11802;53.160;8.214;2024-01-10T00:21:17;-4.60;99.90
23267;DHT22;11802;53.160;8.214;2024-01-10T00:23:43;-4.60;99.90
23267;DHT22;11802;53.160;8.214;2024-01-10T00:26:09;-4.60;99.90
23267;DHT22;11802;53.160;8.214;2024-01-10T00:28:34;-4.60;99.90
23267;DHT22;11802;53.160;8.214;2024-01-10T00:31:00;-4.60;99.90
23267;DHT22;11802;53.160;8.214;2024-01-10T00:33:25;-4.60;99.90
23267;DHT22;11802;53.160;8.214;2024-01-10T00:35:51;-4.70;99.90
23267;DHT22;11802;53.160;8.214;2024-01-10T00:38:17;-4.70;99.90
23267;DHT22;11802;53.160;8.214;2024-01-10T00:40:42;-4.70;99.90
23267;DHT22;11802;53.160;8.214;2024-01-10T00:43:08;-4.70;99.90
23267;DHT22;11802;53.160;8.214;2024-01-10T00:45:33;-4.70;99.90
23267;DHT22;11802;53.160;8.214;2024-01-10T00:47:59;-4.70;99.90
23267;DHT22;11802;53.160;8.214;2024-01-10T00:50:24;-4.70;99.90
23267;DHT22;11802;53.160;8.214;2024-01-10T00:52:50;-4.70;99.90
23267;DHT22;11802;53.160;8.214;2024-01-10T00:55:16;-4.70;99.90
23267;DHT22;11802;53.160;8.214;2024-01-10T00:57:41;-4.80;99.90
23267;DHT22;11802;53.160;8.214;2024-01-10T01:00:08;-4.80;99.90
23267;DHT22;11802;53.160;8.214;2024-01-10T01:02:34;-4.80;99.90
23267;DHT22;11802;53.160;8.214;2024-01-10T01:05:00;-4.80;99.90
23267;DHT22;11802;53.160;8.214;2024-01-10T01:07:26;-4.80;99.90
23267;DHT22;11802;53.160;8.214;2024-01-10T01:09:52;-4.80;99.90
23267;DHT22;11802;53.160;8.214;2024-01-10T01:12:17;-4.80;99.90
23267;DHT22;11802;53.160;8.214;2024-01-10T01:14:43;-4.80;99.90
23267;DHT22;11802;53.160;8.214;2024-01-10T01:17:09;-4.80;99.90
23267;DHT22;11802;53.160;8.214;2024-01-10T01:19:37;-4.80;99.90
23267;DHT22;11802;53.160;8.214;2024-01-10T01:22:03;-4.80;99.90
23267;DHT22;11802;53.160;8.214;2024-01-10T01:24:28;-4.80;99.90
23267;DHT22;11802;53.160;8.214;2024-01-10T01:26:54;-4.80;99.90
23267;DHT22;11802;53.160;8.214;2024-01-10T01:29:20;-4.80;99.90
23267;DHT22;11802;53.160;8.214;2024-01-10T01:31:46;-4.80;99.90
23267;DHT22;11802;53.160;8.214;2024-01-10T01:34:12;-4.80;99.90
23267;DHT22;11802;53.160;8.214;2024-01-10T01:36:38;-4.80;99.90
23267;DHT22;11802;53.160;8.214;2024-01-10T01:39:03;-4.80;99.90
23267;DHT22;11802;53.160;8.214;2024-01-10T01:41:29;-4.80;99.90
23267;DHT22;11802;53.160;8.214;2024-01-10T01:43:54;-4.80;99.90
23267;DHT22;11802;53.160;8.214;2024-01-10T01:46:21;-4.80;99.90
23267;DHT22;11802;53.160;8.214;2024-01-10T01:48:46;-4.80;99.90
23267;DHT22;11802;53.160;8.214;2024-01-10T01:51:12;-4.80;99.90
23267;DHT22;11802;53.160;8.214;2024-01-10T01:53:40;-4.80;99.90
23267;DHT22;11802;53.160;8.214;2024-01-10T01:56:07;-4.80;99.90
23267;DHT22;11802;53.160;8.214;2024-01-10T01:58:34;-4.80;99.90
23267;DHT22;11802;53.160;8.214;2024-01-10T02:01:02;-4.80;99.90
23267;DHT22;11802;53.160;8.214;2024-01-10T02:03:28;-4.90;99.90
23267;DHT22;11802;53.160;8.214;2024-01-10T02:05:53;-4.80;99.90
23267;DHT22;11802;53.160;8.214;2024-01-10T02:08:20;-4.90;99.90
23267;DHT22;11802;53.160;8.214;2024-01-10T02:10:45;-4.90;99.90
23267;DHT22;11802;53.160;8.214;2024-01-10T02:13:11;-4.90;99.90
23267;DHT22;11802;53.160;8.214;2024-01-10T02:15:38;-4.90;99.90
23267;DHT22;11802;53.160;8.214;2024-01-10T02:18:04;-4.90;99.90
23267;DHT22;11802;53.160;8.214;2024-01-10T02:20:31;-4.90;99.90
23267;DHT22;11802;53.160;8.214;2024-01-10T02:22:57;-4.90;99.90
23267;DHT22;11802;53.160;8.214;2024-01-10T02:25:22;-4.90;99.90
23267;DHT22;11802;53.160;8.214;2024-01-10T02:27:48;-4.90;99.90
23267;DHT22;11802;53.160;8.214;2024-01-10T02:30:14;-4.90;99.90
23267;DHT22;11802;53.160;8.214;2024-01-10T02:32:40;-4.90;99.90
23267;DHT22;11802;53.160;8.214;2024-01-10T02:35:06;-5.00;99.90
23267;DHT22;11802;53.160;8.214;2024-01-10T02:37:32;-4.90;99.90
23267;DHT22;11802;53.160;8.214;2024-01-10T02:39:57;-5.00;99.90
23267;DHT22;11802;53.160;8.214;2024-01-10T02:42:23;-5.00;99.90
23267;DHT22;11802;53.160;8.214;2024-01-10T02:44:48;-5.00;99.90
23267;DHT22;11802;53.160;8.214;2024-01-10T02:47:14;-5.00;99.90
23267;DHT22;11802;53.160;8.214;2024-01-10T02:49:40;-5.00;99.90
23267;DHT22;11802;53.160;8.214;2024-01-10T02:52:05;-5.00;99.90
23267;DHT22;11802;53.160;8.214;2024-01-10T02:54:31;-4.90;99.90
23267;DHT22;11802;53.160;8.214;2024-01-10T02:56:56;-4.90;99.90
23267;DHT22;11802;53.160;8.214;2024-01-10T02:59:22;-4.90;99.90
23267;DHT22;11802;53.160;8.214;2024-01-10T03:01:48;-4.90;99.90
23267;DHT22;11802;53.160;8.214;2024-01-10T03:04:13;-4.90;99.90
23267;DHT22;11802;53.160;8.214;2024-01-10T03:06:39;-5.00;99.90
23267;DHT22;11802;53.160;8.214;2024-01-10T03:09:05;-5.00;99.90
23267;DHT22;11802;53.160;8.214;2024-01-10T03:11:30;-5.00;99.90
23267;DHT22;11802;53.160;8.214;2024-01-10T03:14:22;-5.00;99.90
23267;DHT22;11802;53.160;8.214;2024-01-10T03:16:48;-5.00;99.90
23267;DHT22;11802;53.160;8.214;2024-01-10T03:19:14;-5.00;99.90
23267;DHT22;11802;53.160;8.214;2024-01-10T03:21:40;-5.00;99.90
23267;DHT22;11802;53.160;8.214;2024-01-10T03:24:06;-5.00;99.90
23267;DHT22;11802;53.160;8.214;2024-01-10T03:26:32;-5.00;99.90
23267;DHT22;11802;53.160;8.214;2024-01-10T03:28:58;-5.00;99.90
23267;DHT22;11802;53.160;8.214;2024-01-10T03:31:23;-5.00;99.90
23267;DHT22;11802;53.160;8.214;2024-01-10T03:33:49;-5.00;99.90
23267;DHT22;11802;53.160;8.214;2024-01-10T03:36:16;-5.00;99.90
23267;DHT22;11802;53.160;8.214;2024-01-10T03:38:43;-5.10;99.90
23267;DHT22;11802;53.160;8.214;2024-01-10T03:41:16;-5.10;99.90
23267;DHT22;11802;53.160;8.214;2024-01-10T03:43:41;-5.10;99.90
23267;DHT22;11802;53.160;8.214;2024-01-10T03:46:08;-5.10;99.90
23267;DHT22;11802;53.160;8.214;2024-01-10T03:48:33;-5.10;99.90
23267;DHT22;11802;53.160;8.214;2024-01-10T03:50:59;-5.10;99.90
23267;DHT22;11802;53.160;8.214;2024-01-10T03:53:24;-5.20;99.90
23267;DHT22;11802;53.160;8.214;2024-01-10T03:55:50;-5.20;99.90
23267;DHT22;11802;53.160;8.214;2024-01-10T03:58:15;-5.20;99.90
23267;DHT22;11802;53.160;8.214;2024-01-10T04:00:41;-5.30;99.90
23267;DHT22;11802;53.160;8.214;2024-01-10T04:03:06;-5.30;99.90
23267;DHT22;11802;53.160;8.214;2024-01-10T04:05:32;-5.30;99.90
23267;DHT22;11802;53.160;8.214;2024-01-10T04:07:58;-5.40;99.90
23267;DHT22;11802;53.160;8.214;2024-01-10T04:10:23;-5.40;99.90
23267;DHT22;11802;53.160;8.214;2024-01-10T04:12:49;-5.40;99.90
23267;DHT22;11802;53.160;8.214;2024-01-10T04:15:15;-5.50;99.90
23267;DHT22;11802;53.160;8.214;2024-01-10T04:17:41;-5.50;99.90
23267;DHT22;11802;53.160;8.214;2024-01-10T04:20:09;-5.60;99.90
23267;DHT22;11802;53.160;8.214;2024-01-10T04:22:35;-5.60;99.90
23267;DHT22;11802;53.160;8.214;2024-01-10T04:25:01;-5.60;99.90
23267;DHT22;11802;53.160;8.214;2024-01-10T04:27:27;-5.60;99.90
23267;DHT22;11802;53.160;8.214;2024-01-10T04:29:53;-5.60;99.90
23267;DHT22;11802;53.160;8.214;2024-01-10T04:32:19;-5.60;99.90
23267;DHT22;11802;53.160;8.214;2024-01-10T04:34:45;-5.60;99.90
23267;DHT22;11802;53.160;8.214;2024-01-10T04:37:11;-5.50;99.90
23267;DHT22;11802;53.160;8.214;2024-01-10T04:39:36;-5.60;99.90
23267;DHT22;11802;53.160;8.214;2024-01-10T04:42:03;-5.50;99.90
23267;DHT22;11802;53.160;8.214;2024-01-10T04:44:29;-5.50;99.90
23267;DHT22;11802;53.160;8.214;2024-01-10T04:46:55;-5.50;99.90
23267;DHT22;11802;53.160;8.214;2024-01-10T04:49:20;-5.50;99.90
23267;DHT22;11802;53.160;8.214;2024-01-10T04:51:46;-5.50;99.90
23267;DHT22;11802;53.160;8.214;2024-01-10T04:54:12;-5.50;99.90
23267;DHT22;11802;53.160;8.214;2024-01-10T04:56:38;-5.60;99.90
23267;DHT22;11802;53.160;8.214;2024-01-10T04:59:04;-5.50;99.90
23267;DHT22;11802;53.160;8.214;2024-01-10T05:01:30;-5.50;99.90
23267;DHT22;11802;53.160;8.214;2024-01-10T05:03:56;-5.50;99.90
23267;DHT22;11802;53.160;8.214;2024-01-10T05:06:22;-5.50;99.90
23267;DHT22;11802;53.160;8.214;2024-01-10T05:08:47;-5.50;99.90
23267;DHT22;11802;53.160;8.214;2024-01-10T05:11:13;-5.50;99.90
23267;DHT22;11802;53.160;8.214;2024-01-10T05:13:39;-5.50;99.90
23267;DHT22;11802;53.160;8.214;2024-01-10T05:16:05;-5.50;99.90
23267;DHT22;11802;53.160;8.214;2024-01-10T05:18:31;-5.50;99.90
23267;DHT22;11802;53.160;8.214;2024-01-10T05:20:57;-5.50;99.90
23267;DHT22;11802;53.160;8.214;2024-01-10T05:23:23;-5.50;99.90
23267;DHT22;11802;53.160;8.214;2024-01-10T05:25:48;-5.50;99.90
23267;DHT22;11802;53.160;8.214;2024-01-10T05:28:15;-5.50;99.90
23267;DHT22;11802;53.160;8.214;2024-01-10T05:30:40;-5.50;99.90
23267;DHT22;11802;53.160;8.214;2024-01-10T05:33:08;-5.50;99.90
23267;DHT22;11802;53.160;8.214;2024-01-10T05:35:33;-5.50;99.90
23267;DHT22;11802;53.160;8.214;2024-01-10T05:38:01;-5.50;99.90
23267;DHT22;11802;53.160;8.214;2024-01-10T05:40:28;-5.50;99.90
23267;DHT22;11802;53.160;8.214;2024-01-10T05:42:55;-5.50;99.90
23267;DHT22;11802;53.160;8.214;2024-01-10T05:45:21;-5.50;99.90
23267;DHT22;11802;53.160;8.214;2024-01-10T05:47:46;-5.50;99.90
23267;DHT22;11802;53.160;8.214;2024-01-10T05:50:13;-5.50;99.90
23267;DHT22;11802;53.160;8.214;2024-01-10T05:52:39;-5.50;99.90
23267;DHT22;11802;53.160;8.214;2024-01-10T05:55:06;-5.50;99.90
23267;DHT22;11802;53.160;8.214;2024-01-10T05:57:37;-5.60;99.90
23267;DHT22;11802;53.160;8.214;2024-01-10T06:00:03;-5.60;99.90
23267;DHT22;11802;53.160;8.214;2024-01-10T06:02:30;-5.50;99.90
23267;DHT22;11802;53.160;8.214;2024-01-10T06:04:56;-5.50;99.90
23267;DHT22;11802;53.160;8.214;2024-01-10T06:07:21;-5.50;99.90
23267;DHT22;11802;53.160;8.214;2024-01-10T06:09:47;-5.60;99.90
23267;DHT22;11802;53.160;8.214;2024-01-10T06:12:13;-5.50;99.90
23267;DHT22;11802;53.160;8.214;2024-01-10T06:14:38;-5.50;99.90
23267;DHT22;11802;53.160;8.214;2024-01-10T06:17:04;-5.50;99.90
23267;DHT22;11802;53.160;8.214;2024-01-10T06:19:30;-5.60;99.90
23267;DHT22;11802;53.160;8.214;2024-01-10T06:21:59;-5.50;99.90
23267;DHT22;11802;53.160;8.214;2024-01-10T06:24:25;-5.50;99.90
23267;DHT22;11802;53.160;8.214;2024-01-10T06:26:51;-5.60;99.90
23267;DHT22;11802;53.160;8.214;2024-01-10T06:29:18;-5.60;99.90
23267;DHT22;11802;53.160;8.214;2024-01-10T06:31:44;-5.60;99.90
23267;DHT22;11802;53.160;8.214;2024-01-10T06:34:09;-5.60;99.90
23267;DHT22;11802;53.160;8.214;2024-01-10T06:36:35;-5.60;99.90
23267;DHT22;11802;53.160;8.214;2024-01-10T06:39:01;-5.60;99.90
23267;DHT22;11802;53.160;8.214;2024-01-10T06:41:27;-5.60;99.90
23267;DHT22;11802;53.160;8.214;2024-01-10T06:43:53;-5.50;99.90
23267;DHT22;11802;53.160;8.214;2024-01-10T06:46:19;-5.50;99.90
23267;DHT22;11802;53.160;8.214;2024-01-10T06:48:44;-5.50;99.90
23267;DHT22;11802;53.160;8.214;2024-01-10T06:51:12;-5.50;99.90
23267;DHT22;11802;53.160;8.214;2024-01-10T06:53:38;-5.50;99.90
23267;DHT22;11802;53.160;8.214;2024-01-10T06:56:04;-5.60;99.90
23267;DHT22;11802;53.160;8.214;2024-01-10T06:58:30;-5.60;99.90
23267;DHT22;11802;53.160;8.214;2024-01-10T07:00:56;-5.60;99.90
23267;DHT22;11802;53.160;8.214;2024-01-10T07:03:22;-5.50;99.90
23267;DHT22;11802;53.160;8.214;2024-01-10T07:05:47;-5.50;99.90
23267;DHT22;11802;53.160;8.214;2024-01-10T07:08:14;-5.50;99.90
23267;DHT22;11802;53.160;8.214;2024-01-10T07:10:39;-5.50;99.90
23267;DHT22;11802;53.160;8.214;2024-01-10T07:13:05;-5.50;99.90
23267;DHT22;11802;53.160;8.214;2024-01-10T07:15:30;-5.50;99.90
23267;DHT22;11802;53.160;8.214;2024-01-10T07:17:56;-5.50;99.90
23267;DHT22;11802;53.160;8.214;2024-01-10T07:20:22;-5.50;99.90
23267;DHT22;11802;53.160;8.214;2024-01-10T07:22:49;-5.50;99.90
23267;DHT22;11802;53.160;8.214;2024-01-10T07:25:16;-5.50;99.90
23267;DHT22;11802;53.160;8.214;2024-01-10T07:27:45;-5.50;99.90
23267;DHT22;11802;53.160;8.214;2024-01-10T07:30:11;-5.50;99.90
23267;DHT22;11802;53.160;8.214;2024-01-10T07:32:43;-5.50;99.90
23267;DHT22;11802;53.160;8.214;2024-01-10T07:35:10;-5.50;99.90
23267;DHT22;11802;53.160;8.214;2024-01-10T07:37:40;-5.50;99.90
23267;DHT22;11802;53.160;8.214;2024-01-10T07:40:07;-5.50;99.90
23267;DHT22;11802;53.160;8.214;2024-01-10T07:42:34;-5.50;99.90
23267;DHT22;11802;53.160;8.214;2024-01-10T07:45:01;-5.40;99.90
23267;DHT22;11802;53.160;8.214;2024-01-10T07:47:30;-5.40;99.90
23267;DHT22;11802;53.160;8.214;2024-01-10T07:49:57;-5.40;99.90
23267;DHT22;11802;53.160;8.214;2024-01-10T07:52:22;-5.30;99.90
23267;DHT22;11802;53.160;8.214;2024-01-10T07:54:48;-5.30;99.90
23267;DHT22;11802;53.160;8.214;2024-01-10T07:57:14;-5.20;99.90
23267;DHT22;11802;53.160;8.214;2024-01-10T07:59:40;-5.20;99.90
23267;DHT22;11802;53.160;8.214;2024-01-10T08:02:05;-5.20;99.90
23267;DHT22;11802;53.160;8.214;2024-01-10T08:04:31;-5.20;99.90
23267;DHT22;11802;53.160;8.214;2024-01-10T08:06:56;-5.10;99.90
23267;DHT22;11802;53.160;8.214;2024-01-10T08:09:22;-5.10;99.90
23267;DHT22;11802;53.160;8.214;2024-01-10T08:11:49;-5.10;99.90
23267;DHT22;11802;53.160;8.214;2024-01-10T08:14:15;-5.10;99.90
23267;DHT22;11802;53.160;8.214;2024-01-10T08:16:41;-5.00;99.90
23267;DHT22;11802;53.160;8.214;2024-01-10T08:19:07;-5.00;99.90
23267;DHT22;11802;53.160;8.214;2024-01-10T08:21:33;-5.00;99.90
23267;DHT22;11802;53.160;8.214;2024-01-10T08:23:59;-4.90;99.90
23267;DHT22;11802;53.160;8.214;2024-01-10T08:26:25;-4.90;99.90
23267;DHT22;11802;53.160;8.214;2024-01-10T08:29:41;-4.80;99.90
23267;DHT22;11802;53.160;8.214;2024-01-10T08:32:00;-4.80;99.90
23267;DHT22;11802;53.160;8.214;2024-01-10T08:34:25;-4.70;99.90
23267;DHT22;11802;53.160;8.214;2024-01-10T08:36:52;-4.70;99.90
23267;DHT22;11802;53.160;8.214;2024-01-10T08:39:18;-4.70;99.90
23267;DHT22;11802;53.160;8.214;2024-01-10T08:41:44;-4.60;99.90
23267;DHT22;11802;53.160;8.214;2024-01-10T08:44:10;-4.60;99.90
23267;DHT22;11802;53.160;8.214;2024-01-10T08:46:36;-4.50;99.90
23267;DHT22;11802;53.160;8.214;2024-01-10T08:49:01;-4.50;99.90
23267;DHT22;11802;53.160;8.214;2024-01-10T08:51:28;-4.40;99.90
23267;DHT22;11802;53.160;8.214;2024-01-10T08:53:53;-4.40;99.90
23267;DHT22;11802;53.160;8.214;2024-01-10T08:56:19;-4.40;99.90
23267;DHT22;11802;53.160;8.214;2024-01-10T08:58:45;-4.40;99.90
23267;DHT22;11802;53.160;8.214;2024-01-10T09:01:11;-4.40;99.90
23267;DHT22;11802;53.160;8.214;2024-01-10T09:03:36;-4.40;99.90
23267;DHT22;11802;53.160;8.214;2024-01-10T09:06:03;-4.40;99.90
23267;DHT22;11802;53.160;8.214;2024-01-10T09:08:30;-4.30;99.90
23267;DHT22;11802;53.160;8.214;2024-01-10T09:10:55;-4.30;99.90
23267;DHT22;11802;53.160;8.214;2024-01-10T09:13:21;-4.20;99.90
23267;DHT22;11802;53.160;8.214;2024-01-10T09:15:46;-4.20;99.90
23267;DHT22;11802;53.160;8.214;2024-01-10T09:18:12;-4.20;99.90
23267;DHT22;11802;53.160;8.214;2024-01-10T09:20:38;-4.10;99.90
23267;DHT22;11802;53.160;8.214;2024-01-10T09:23:04;-4.00;99.90
23267;DHT22;11802;53.160;8.214;2024-01-10T09:25:29;-3.90;99.90
23267;DHT22;11802;53.160;8.214;2024-01-10T09:27:55;-3.90;99.90
23267;DHT22;11802;53.160;8.214;2024-01-10T09:30:21;-3.80;99.90
23267;DHT22;11802;53.160;8.214;2024-01-10T09:32:47;-3.70;99.90
23267;DHT22;11802;53.160;8.214;2024-01-10T09:35:12;-3.60;99.90
23267;DHT22;11802;53.160;8.214;2024-01-10T09:37:39;-3.60;99.90
23267;DHT22;11802;53.160;8.214;2024-01-10T09:40:05;-3.50;99.90
23267;DHT22;11802;53.160;8.214;2024-01-10T09:42:34;-3.40;99.90
23267;DHT22;11802;53.160;8.214;2024-01-10T09:45:01;-3.40;99.90
23267;DHT22;11802;53.160;8.214;2024-01-10T09:47:28;-3.50;99.90
23267;DHT22;11802;53.160;8.214;2024-01-10T09:49:56;-3.30;99.90
23267;DHT22;11802;53.160;8.214;2024-01-10T09:52:27;-3.10;99.90
23267;DHT22;11802;53.160;8.214;2024-01-10T09:54:54;-3.10;99.90
23267;DHT22;11802;53.160;8.214;2024-01-10T09:57:25;-3.10;99.90
23267;DHT22;11802;53.160;8.214;2024-01-10T09:59:51;-3.20;99.90
23267;DHT22;11802;53.160;8.214;2024-01-10T10:02:18;-3.10;99.90
23267;DHT22;11802;53.160;8.214;2024-01-10T10:05:32;-2.90;99.90
23267;DHT22;11802;53.160;8.214;2024-01-10T10:07:45;-2.90;99.90
23267;DHT22;11802;53.160;8.214;2024-01-10T10:10:10;-2.90;99.90
23267;DHT22;11802;53.160;8.214;2024-01-10T10:12:51;-3.00;99.90
23267;DHT22;11802;53.160;8.214;2024-01-10T10:15:19;-2.90;99.90
23267;DHT22;11802;53.160;8.214;2024-01-10T10:17:47;-2.90;99.90
23267;DHT22;11802;53.160;8.214;2024-01-10T10:25:31;-2.70;99.90
23267;DHT22;11802;53.160;8.214;2024-01-10T10:28:01;-2.70;99.90
23267;DHT22;11802;53.160;8.214;2024-01-10T10:30:27;-2.70;84.90
23267;DHT22;11802;53.160;8.214;2024-01-10T10:32:54;-2.60;92.70
23267;DHT22;11802;53.160;8.214;2024-01-10T10:35:20;-2.60;99.90
23267;DHT22;11802;53.160;8.214;2024-01-10T10:37:48;-2.60;92.50
23267;DHT22;11802;53.160;8.214;2024-01-10T10:40:14;-2.60;81.70
23267;DHT22;11802;53.160;8.214;2024-01-10T10:42:44;-2.70;51.90
23267;DHT22;11802;53.160;8.214;2024-01-10T10:45:14;-2.60;90.40
23267;DHT22;11802;53.160;8.214;2024-01-10T10:47:41;-2.50;99.40
23267;DHT22;11802;53.160;8.214;2024-01-10T10:50:12;-2.50;90.90
23267;DHT22;11802;53.160;8.214;2024-01-10T10:52:44;-2.50;70.40
23267;DHT22;11802;53.160;8.214;2024-01-10T10:55:11;-2.40;37.20
23267;DHT22;11802;53.160;8.214;2024-01-10T10:57:39;-2.50;12.20
23267;DHT22;11802;53.160;8.214;2024-01-10T11:00:06;-2.50;30.60
23267;DHT22;11802;53.160;8.214;2024-01-10T11:02:32;-2.40;33.20
23267;DHT22;11802;53.160;8.214;2024-01-10T11:04:59;-2.30;23.90
23267;DHT22;11802;53.160;8.214;2024-01-10T11:07:27;-2.30;1.00
23267;DHT22;11802;53.160;8.214;2024-01-10T11:09:53;-2.30;1.00
23267;DHT22;11802;53.160;8.214;2024-01-10T11:15:34;-2.10;1.00
23267;DHT22;11802;53.160;8.214;2024-01-10T11:21:30;-1.90;1.00
23267;DHT22;11802;53.160;8.214;2024-01-10T11:24:01;-1.90;1.00
23267;DHT22;11802;53.160;8.214;2024-01-10T11:26:28;-1.60;1.00
23267;DHT22;11802;53.160;8.214;2024-01-10T11:28:53;-1.50;1.00
23267;DHT22;11802;53.160;8.214;2024-01-10T11:31:28;-1.40;1.00
23267;DHT22;11802;53.160;8.214;2024-01-10T11:33:59;-1.40;1.00
23267;DHT22;11802;53.160;8.214;2024-01-10T11:36:25;-1.40;1.00
23267;DHT22;11802;53.160;8.214;2024-01-10T11:49:12;-1.60;1.00
23267;DHT22;11802;53.160;8.214;2024-01-10T11:51:41;-1.60;1.00
23267;DHT22;11802;53.160;8.214;2024-01-10T11:54:07;-1.60;1.00
23267;DHT22;11802;53.160;8.214;2024-01-10T11:56:43;-1.50;1.00
23267;DHT22;11802;53.160;8.214;2024-01-10T11:59:11;-1.50;1.00
23267;DHT22;11802;53.160;8.214;2024-01-10T12:01:38;-1.50;1.00
23267;DHT22;11802;53.160;8.214;2024-01-10T12:04:05;-1.50;1.00
23267;DHT22;11802;53.160;8.214;2024-01-10T12:06:32;-1.40;1.00
23267;DHT22;11802;53.160;8.214;2024-01-10T12:08:58;-1.40;1.00
23267;DHT22;11802;53.160;8.214;2024-01-10T12:11:25;-1.40;1.00
23267;DHT22;11802;53.160;8.214;2024-01-10T12:13:50;-1.40;1.00
23267;DHT22;11802;53.160;8.214;2024-01-10T12:16:18;-1.40;1.00
23267;DHT22;11802;53.160;8.214;2024-01-10T12:18:43;-1.40;1.00
23267;DHT22;11802;53.160;8.214;2024-01-10T12:21:09;-1.30;1.00
23267;DHT22;11802;53.160;8.214;2024-01-10T12:23:38;-1.30;99.90
23267;DHT22;11802;53.160;8.214;2024-01-10T12:26:10;-1.20;1.00
23267;DHT22;11802;53.160;8.214;2024-01-10T12:28:38;-1.20;1.00
23267;DHT22;11802;53.160;8.214;2024-01-10T12:31:05;-1.20;99.90
23267;DHT22;11802;53.160;8.214;2024-01-10T12:33:33;-1.20;1.00
23267;DHT22;11802;53.160;8.214;2024-01-10T12:36:09;-1.10;1.00
23267;DHT22;11802;53.160;8.214;2024-01-10T12:38:37;-1.10;1.00
23267;DHT22;11802;53.160;8.214;2024-01-10T12:41:04;-1.10;99.90
23267;DHT22;11802;53.160;8.214;2024-01-10T12:43:31;-1.20;1.00
23267;DHT22;11802;53.160;8.214;2024-01-10T12:46:07;-1.20;1.00
23267;DHT22;11802;53.160;8.214;2024-01-10T12:48:36;-1.20;1.00
23267;DHT22;11802;53.160;8.214;2024-01-10T12:51:05;-1.20;1.00
23267;DHT22;11802;53.160;8.214;2024-01-10T12:53:37;-1.20;1.00
23267;DHT22;11802;53.160;8.214;2024-01-10T12:56:05;-1.20;1.00
23267;DHT22;11802;53.160;8.214;2024-01-10T12:58:31;-1.30;1.00
23267;DHT22;11802;53.160;8.214;2024-01-10T13:00:57;-1.30;99.90
23267;DHT22;11802;53.160;8.214;2024-01-10T13:03:23;-1.30;1.00
23267;DHT22;11802;53.160;8.214;2024-01-10T13:05:50;-1.30;99.90
23267;DHT22;11802;53.160;8.214;2024-01-10T13:08:15;-1.30;1.00
23267;DHT22;11802;53.160;8.214;2024-01-10T13:10:42;-1.30;99.90
23267;DHT22;11802;53.160;8.214;2024-01-10T13:13:08;-1.30;1.00
23267;DHT22;11802;53.160;8.214;2024-01-10T13:15:34;-1.30;22.40
23267;DHT22;11802;53.160;8.214;2024-01-10T13:18:00;-1.30;1.00
23267;DHT22;11802;53.160;8.214;2024-01-10T13:20:25;-1.30;99.90
23267;DHT22;11802;53.160;8.214;2024-01-10T13:22:51;-1.40;99.90
23267;DHT22;11802;53.160;8.214;2024-01-10T13:25:17;-1.40;1.00
23267;DHT22;11802;53.160;8.214;2024-01-10T13:27:43;-1.40;99.90
23267;DHT22;11802;53.160;8.214;2024-01-10T13:30:09;-1.40;1.00
23267;DHT22;11802;53.160;8.214;2024-01-10T13:32:37;-1.40;99.90
23267;DHT22;11802;53.160;8.214;2024-01-10T13:35:04;-1.40;1.00
23267;DHT22;11802;53.160;8.214;2024-01-10T13:37:29;-1.40;1.00
23267;DHT22;11802;53.160;8.214;2024-01-10T13:39:57;-1.40;27.40
23267;DHT22;11802;53.160;8.214;2024-01-10T13:42:22;-1.40;1.00
23267;DHT22;11802;53.160;8.214;2024-01-10T13:44:49;-1.50;1.00
23267;DHT22;11802;53.160;8.214;2024-01-10T13:47:17;-1.40;99.90
23267;DHT22;11802;53.160;8.214;2024-01-10T13:49:42;-1.40;1.00
23267;DHT22;11802;53.160;8.214;2024-01-10T13:52:08;-1.50;1.00
23267;DHT22;11802;53.160;8.214;2024-01-10T13:54:34;-1.50;99.90
23267;DHT22;11802;53.160;8.214;2024-01-10T13:56:59;-1.50;99.90
23267;DHT22;11802;53.160;8.214;2024-01-10T13:59:25;-1.50;1.00
23267;DHT22;11802;53.160;8.214;2024-01-10T14:01:50;-1.50;99.90
23267;DHT22;11802;53.160;8.214;2024-01-10T14:04:16;-1.50;1.00
23267;DHT22;11802;53.160;8.214;2024-01-10T14:06:42;-1.50;1.00
23267;DHT22;11802;53.160;8.214;2024-01-10T14:09:07;-1.50;82.90
23267;DHT22;11802;53.160;8.214;2024-01-10T14:11:35;-1.50;86.70
23267;DHT22;11802;53.160;8.214;2024-01-10T14:14:00;-1.50;1.00
23267;DHT22;11802;53.160;8.214;2024-01-10T14:16:27;-1.50;1.00
23267;DHT22;11802;53.160;8.214;2024-01-10T14:18:53;-1.50;1.00
23267;DHT22;11802;53.160;8.214;2024-01-10T14:21:21;-1.50;1.00
23267;DHT22;11802;53.160;8.214;2024-01-10T14:23:47;-1.60;99.90
23267;DHT22;11802;53.160;8.214;2024-01-10T14:26:14;-1.60;99.90
23267;DHT22;11802;53.160;8.214;2024-01-10T14:28:40;-1.60;99.90
23267;DHT22;11802;53.160;8.214;2024-01-10T14:31:06;-1.60;1.00
23267;DHT22;11802;53.160;8.214;2024-01-10T14:33:32;-1.60;1.00
23267;DHT22;11802;53.160;8.214;2024-01-10T14:35:59;-1.60;1.00
23267;DHT22;11802;53.160;8.214;2024-01-10T14:38:25;-1.60;99.90
23267;DHT22;11802;53.160;8.214;2024-01-10T14:40:50;-1.60;40.10
23267;DHT22;11802;53.160;8.214;2024-01-10T14:43:17;-1.70;99.90
23267;DHT22;11802;53.160;8.214;2024-01-10T14:45:43;-1.70;1.00
23267;DHT22;11802;53.160;8.214;2024-01-10T14:48:09;-1.70;99.90
23267;DHT22;11802;53.160;8.214;2024-01-10T14:50:34;-1.70;1.00
23267;DHT22;11802;53.160;8.214;2024-01-10T14:53:01;-1.70;1.00
23267;DHT22;11802;53.160;8.214;2024-01-10T14:55:26;-1.80;1.00
23267;DHT22;11802;53.160;8.214;2024-01-10T14:57:54;-1.80;99.90
23267;DHT22;11802;53.160;8.214;2024-01-10T15:00:19;-1.80;99.90
23267;DHT22;11802;53.160;8.214;2024-01-10T15:02:45;-1.80;1.00
23267;DHT22;11802;53.160;8.214;2024-01-10T15:05:11;-1.80;99.90
23267;DHT22;11802;53.160;8.214;2024-01-10T15:07:38;-1.90;1.00
23267;DHT22;11802;53.160;8.214;2024-01-10T15:10:04;-1.90;1.00
23267;DHT22;11802;53.160;8.214;2024-01-10T15:12:30;-2.00;1.00
23267;DHT22;11802;53.160;8.214;2024-01-10T15:14:55;-2.00;1.00
23267;DHT22;11802;53.160;8.214;2024-01-10T15:17:25;-2.10;1.00
23267;DHT22;11802;53.160;8.214;2024-01-10T15:19:51;-2.10;1.00
23267;DHT22;11802;53.160;8.214;2024-01-10T15:22:16;-2.10;1.00
23267;DHT22;11802;53.160;8.214;2024-01-10T15:24:43;-2.20;1.00
23267;DHT22;11802;53.160;8.214;2024-01-10T15:27:09;-2.30;1.00
23267;DHT22;11802;53.160;8.214;2024-01-10T15:29:36;-2.40;1.00
23267;DHT22;11802;53.160;8.214;2024-01-10T15:32:02;-2.40;27.00
23267;DHT22;11802;53.160;8.214;2024-01-10T15:34:29;-2.50;26.70
23267;DHT22;11802;53.160;8.214;2024-01-10T15:36:54;-2.50;36.50
23267;DHT22;11802;53.160;8.214;2024-01-10T15:39:20;-2.50;42.50
23267;DHT22;11802;53.160;8.214;2024-01-10T15:41:47;-2.60;45.20
23267;DHT22;11802;53.160;8.214;2024-01-10T15:44:13;-2.60;69.50
23267;DHT22;11802;53.160;8.214;2024-01-10T15:46:38;-2.70;79.40
23267;DHT22;11802;53.160;8.214;2024-01-10T15:49:04;-2.70;99.90
23267;DHT22;11802;53.160;8.214;2024-01-10T15:51:33;-2.70;99.90
23267;DHT22;11802;53.160;8.214;2024-01-10T15:53:59;-2.70;98.00